Time,TemperatureF,DewpointF,PressureIn,WindDirection,WindDirectionDegrees,WindSpeedMPH,WindSpeedGustMPH,Humidity,HourlyPrecipIn,Conditions,Clouds,dailyrainin,SoftwareType,DateUTC
2013-03-26 00:08:00,33.1,27.0,29.63,NW,313,0.0,1.0,79,0.00,,,0.00,weatherlink.com 1.10,2013-03-26 04:08:00,
2013-03-26 00:23:00,32.9,27.0,29.63,NW,316,0.0,1.0,79,0.00,,,0.00,weatherlink.com 1.10,2013-03-26 04:23:00,
2013-03-26 00:38:00,32.8,27.0,29.63,NW,316,1.0,1.0,79,0.00,,,0.00,weatherlink.com 1.10,2013-03-26 04:38:00,
2013-03-26 00:53:00,32.7,27.0,29.63,NW,316,0.0,1.0,79,0.00,,,0.00,weatherlink.com 1.10,2013-03-26 04:53:00,
2013-03-26 01:08:00,32.7,27.0,29.63,NW,316,0.0,1.0,80,0.00,,,0.00,weatherlink.com 1.10,2013-03-26 05:08:00,
2013-03-26 01:23:00,32.7,27.0,29.64,NW,316,0.0,1.0,80,0.00,,,0.00,weatherlink.com 1.10,2013-03-26 05:23:00,
2013-03-26 01:38:00,32.6,27.0,29.63,North,355,0.0,1.0,80,0.00,,,0.00,weatherlink.com 1.10,2013-03-26 05:38:00,
2013-03-26 01:53:00,32.6,27.0,29.63,North,354,0.0,1.0,80,0.00,,,0.00,weatherlink.com 1.10,2013-03-26 05:53:00,
2013-03-26 02:08:00,32.4,27.0,29.63,North,354,0.0,1.0,81,0.00,,,0.00,weatherlink.com 1.10,2013-03-26 06:08:00,
2013-03-26 02:23:00,32.4,27.0,29.64,North,356,0.0,0.0,81,0.00,,,0.00,weatherlink.com 1.10,2013-03-26 06:23:00,
2013-03-26 02:38:00,32.2,27.0,29.64,North,354,0.0,1.0,81,0.00,,,0.00,weatherlink.com 1.10,2013-03-26 06:38:00,
2013-03-26 02:53:00,32.4,27.0,29.64,North,354,0.0,1.0,81,0.00,,,0.00,weatherlink.com 1.10,2013-03-26 06:53:00,
2013-03-26 03:08:00,32.4,27.0,29.64,North,354,0.0,0.0,81,0.00,,,0.00,weatherlink.com 1.10,2013-03-26 07:08:00,
2013-03-26 03:23:00,32.5,27.0,29.64,North,354,0.0,0.0,81,0.00,,,0.00,weatherlink.com 1.10,2013-03-26 07:23:00,
2013-03-26 03:38:00,32.5,28.0,29.64,North,354,0.0,1.0,82,0.00,,,0.00,weatherlink.com 1.10,2013-03-26 07:38:00,
2013-03-26 03:53:00,32.3,28.0,29.64,North,354,0.0,0.0,83,0.00,,,0.00,weatherlink.com 1.10,2013-03-26 07:53:00,
2013-03-26 04:08:00,32.1,28.0,29.64,North,354,0.0,1.0,84,0.00,,,0.00,weatherlink.com 1.10,2013-03-26 08:08:00,
2013-03-26 04:23:00,31.9,28.0,29.64,North,356,0.0,0.0,85,0.00,,,0.00,weatherlink.com 1.10,2013-03-26 08:23:00,
2013-03-26 04:53:00,32.0,29.0,29.65,North,353,1.0,1.0,87,0.00,,,0.00,weatherlink.com 1.10,2013-03-26 08:53:00,
2013-03-26 05:08:00,31.6,28.0,29.65,North,354,0.0,0.0,87,0.00,,,0.00,weatherlink.com 1.10,2013-03-26 09:08:00,
2013-03-26 05:23:00,31.6,29.0,29.66,North,354,0.0,0.0,88,0.00,,,0.00,weatherlink.com 1.10,2013-03-26 09:23:00,
2013-03-26 05:38:00,31.6,29.0,29.66,SSW,204,0.0,1.0,88,0.00,,,0.00,weatherlink.com 1.10,2013-03-26 09:38:00,
2013-03-26 05:54:00,31.5,29.0,29.66,WNW,284,0.0,1.0,89,0.00,,,0.00,weatherlink.com 1.10,2013-03-26 09:54:00,
2013-03-26 06:09:00,31.4,29.0,29.67,WNW,284,0.0,0.0,89,0.00,,,0.00,weatherlink.com 1.10,2013-03-26 10:09:00,
2013-03-26 06:23:00,31.3,29.0,29.67,WNW,284,0.0,1.0,89,0.00,,,0.00,weatherlink.com 1.10,2013-03-26 10:23:00,
2013-03-26 06:38:00,31.3,29.0,29.68,WNW,284,0.0,1.0,90,0.00,,,0.00,weatherlink.com 1.10,2013-03-26 10:38:00,
2013-03-26 06:53:00,32.4,30.0,29.68,NW,318,0.0,3.0,89,0.00,,,0.00,weatherlink.com 1.10,2013-03-26 10:53:00,
2013-03-26 07:09:00,32.9,30.0,29.69,ENE,70,0.0,1.0,88,0.00,,,0.00,weatherlink.com 1.10,2013-03-26 11:09:00,
2013-03-26 07:39:00,34.9,31.0,29.70,ENE,73,0.0,3.0,85,0.00,,,0.00,weatherlink.com 1.10,2013-03-26 11:39:00,
2013-03-26 07:54:00,35.9,31.0,29.70,North,1,1.0,3.0,81,0.00,,,0.00,weatherlink.com 1.10,2013-03-26 11:54:00,
2013-03-26 08:09:00,36.5,31.0,29.70,South,174,0.0,2.0,79,0.00,,,0.00,weatherlink.com 1.10,2013-03-26 12:09:00,
2013-03-26 08:25:00,36.5,30.0,29.70,NNE,33,1.0,4.0,76,0.00,,,0.00,weatherlink.com 1.10,2013-03-26 12:25:00,
2013-03-26 08:40:00,35.9,29.0,29.71,NW,321,2.0,7.0,77,0.00,,,0.00,weatherlink.com 1.10,2013-03-26 12:40:00,
2013-03-26 08:54:00,36.0,30.0,29.71,SSW,210,1.0,4.0,78,0.00,,,0.00,weatherlink.com 1.10,2013-03-26 12:54:00,
2013-03-26 09:09:00,36.7,29.0,29.71,NNW,328,3.0,6.0,75,0.00,,,0.00,weatherlink.com 1.10,2013-03-26 13:09:00,
2013-03-26 09:24:00,37.5,29.0,29.71,SSW,198,4.0,6.0,72,0.00,,,0.00,weatherlink.com 1.10,2013-03-26 13:24:00,
2013-03-26 09:39:00,39.1,30.0,29.71,SSW,197,2.0,7.0,71,0.00,,,0.00,weatherlink.com 1.10,2013-03-26 13:39:00,
2013-03-26 09:54:00,40.8,24.0,29.72,NW,319,4.0,8.0,51,0.00,,,0.00,weatherlink.com 1.10,2013-03-26 13:54:00,
2013-03-26 10:09:00,41.1,23.0,29.72,North,4,4.0,9.0,49,0.00,,,0.00,weatherlink.com 1.10,2013-03-26 14:09:00,
2013-03-26 10:24:00,41.4,22.0,29.72,NE,56,5.0,10.0,46,0.00,,,0.00,weatherlink.com 1.10,2013-03-26 14:24:00,
2013-03-26 10:39:00,41.5,21.0,29.72,NNW,345,3.0,12.0,44,0.00,,,0.00,weatherlink.com 1.10,2013-03-26 14:39:00,
2013-03-26 10:54:00,41.8,22.0,29.72,NW,325,4.0,11.0,46,0.00,,,0.00,weatherlink.com 1.10,2013-03-26 14:54:00,
2013-03-26 11:09:00,41.6,22.0,29.73,ESE,103,5.0,12.0,45,0.00,,,0.00,weatherlink.com 1.10,2013-03-26 15:09:00,
2013-03-26 11:24:00,42.4,22.0,29.73,NNE,21,3.0,11.0,44,0.00,,,0.00,weatherlink.com 1.10,2013-03-26 15:24:00,
2013-03-26 11:39:00,42.8,22.0,29.73,ENE,77,9.0,12.0,44,0.00,,,0.00,weatherlink.com 1.10,2013-03-26 15:39:00,
2013-03-26 11:54:00,43.2,22.0,29.73,North,1,5.0,13.0,43,0.00,,,0.00,weatherlink.com 1.10,2013-03-26 15:54:00,
2013-03-26 12:09:00,42.4,22.0,29.73,NW,321,2.0,9.0,44,0.00,,,0.00,weatherlink.com 1.10,2013-03-26 16:09:00,
2013-03-26 12:24:00,42.3,21.0,29.74,NW,318,4.0,9.0,43,0.00,,,0.00,weatherlink.com 1.10,2013-03-26 16:24:00,
2013-03-26 12:39:00,42.1,21.0,29.74,NNW,338,3.0,8.0,43,0.00,,,0.00,weatherlink.com 1.10,2013-03-26 16:39:00,
2013-03-26 12:54:00,42.5,21.0,29.74,NW,318,6.0,11.0,43,0.00,,,0.00,weatherlink.com 1.10,2013-03-26 16:54:00,
2013-03-26 13:09:00,42.4,21.0,29.74,North,353,9.0,9.0,43,0.00,,,0.00,weatherlink.com 1.10,2013-03-26 17:09:00,
2013-03-26 13:24:00,43.8,21.0,29.74,ENE,67,8.0,13.0,41,0.00,,,0.00,weatherlink.com 1.10,2013-03-26 17:24:00,
2013-03-26 13:39:00,43.8,21.0,29.74,NNE,29,3.0,11.0,41,0.00,,,0.00,weatherlink.com 1.10,2013-03-26 17:39:00,
2013-03-26 13:54:00,45.1,23.0,29.73,North,352,2.0,6.0,41,0.00,,,0.00,weatherlink.com 1.10,2013-03-26 17:54:00,
2013-03-26 14:09:00,44.0,21.0,29.73,NNW,347,4.0,10.0,40,0.00,,,0.00,weatherlink.com 1.10,2013-03-26 18:09:00,
2013-03-26 14:24:00,45.2,21.0,29.73,NNW,337,5.0,9.0,39,0.00,,,0.00,weatherlink.com 1.10,2013-03-26 18:24:00,
2013-03-26 14:39:00,45.0,22.0,29.73,WNW,298,5.0,8.0,40,0.00,,,0.00,weatherlink.com 1.10,2013-03-26 18:39:00,
2013-03-26 14:54:00,44.5,21.0,29.73,NNW,328,2.0,9.0,39,0.00,,,0.00,weatherlink.com 1.10,2013-03-26 18:54:00,
2013-03-26 15:09:00,45.4,20.0,29.73,NNW,333,6.0,11.0,37,0.00,,,0.00,weatherlink.com 1.10,2013-03-26 19:09:00,
2013-03-26 15:24:00,44.3,21.0,29.73,North,349,2.0,8.0,40,0.00,,,0.00,weatherlink.com 1.10,2013-03-26 19:24:00,
2013-03-26 15:40:00,44.3,21.0,29.73,NW,306,5.0,11.0,39,0.00,,,0.00,weatherlink.com 1.10,2013-03-26 19:40:00,
2013-03-26 15:56:00,45.7,20.0,29.74,NNE,32,6.0,10.0,36,0.00,,,0.00,weatherlink.com 1.10,2013-03-26 19:56:00,
2013-03-26 16:10:00,46.3,22.0,29.73,NW,304,3.0,11.0,38,0.00,,,0.00,weatherlink.com 1.10,2013-03-26 20:10:00,
2013-03-26 16:25:00,45.8,22.0,29.74,NE,45,1.0,8.0,39,0.00,,,0.00,weatherlink.com 1.10,2013-03-26 20:25:00,
2013-03-26 16:40:00,46.4,21.0,29.73,NNW,330,2.0,8.0,37,0.00,,,0.00,weatherlink.com 1.10,2013-03-26 20:40:00,
2013-03-26 16:55:00,45.9,21.0,29.74,NW,309,6.0,12.0,38,0.00,,,0.00,weatherlink.com 1.10,2013-03-26 20:55:00,
2013-03-26 17:10:00,45.9,23.0,29.74,NW,321,4.0,9.0,40,0.00,,,0.00,weatherlink.com 1.10,2013-03-26 21:10:00,
2013-03-26 17:25:00,45.9,22.0,29.74,West,261,5.0,10.0,39,0.00,,,0.00,weatherlink.com 1.10,2013-03-26 21:25:00,
2013-03-26 17:40:00,45.0,22.0,29.75,SSW,210,3.0,7.0,40,0.00,,,0.00,weatherlink.com 1.10,2013-03-26 21:40:00,
2013-03-26 17:55:00,44.5,22.0,29.75,WNW,285,1.0,6.0,41,0.00,,,0.00,weatherlink.com 1.10,2013-03-26 21:55:00,
2013-03-26 18:10:00,43.6,22.0,29.76,WNW,284,4.0,5.0,42,0.00,,,0.00,weatherlink.com 1.10,2013-03-26 22:10:00,
2013-03-26 18:25:00,43.0,22.0,29.76,West,281,0.0,3.0,43,0.00,,,0.00,weatherlink.com 1.10,2013-03-26 22:25:00,
2013-03-26 18:40:00,42.5,22.0,29.77,NW,322,0.0,7.0,44,0.00,,,0.00,weatherlink.com 1.10,2013-03-26 22:40:00,
2013-03-26 18:55:00,41.7,22.0,29.77,North,11,3.0,5.0,46,0.00,,,0.00,weatherlink.com 1.10,2013-03-26 22:55:00,
2013-03-26 19:10:00,41.2,23.0,29.77,NNW,329,5.0,5.0,48,0.00,,,0.00,weatherlink.com 1.10,2013-03-26 23:10:00,
2013-03-26 19:25:00,40.6,23.0,29.78,NNW,342,1.0,5.0,49,0.00,,,0.00,weatherlink.com 1.10,2013-03-26 23:25:00,
2013-03-26 19:40:00,39.8,23.0,29.78,North,3,2.0,4.0,51,0.00,,,0.00,weatherlink.com 1.10,2013-03-26 23:40:00,
2013-03-26 19:55:00,39.0,23.0,29.79,North,10,1.0,3.0,53,0.00,,,0.00,weatherlink.com 1.10,2013-03-26 23:55:00,
2013-03-26 20:10:00,38.6,23.0,29.80,WNW,300,1.0,2.0,54,0.00,,,0.00,weatherlink.com 1.10,2013-03-27 00:10:00,
2013-03-26 20:25:00,38.0,23.0,29.80,WNW,301,0.0,2.0,56,0.00,,,0.00,weatherlink.com 1.10,2013-03-27 00:25:00,
2013-03-26 20:40:00,37.1,23.0,29.81,SE,131,0.0,1.0,58,0.00,,,0.00,weatherlink.com 1.10,2013-03-27 00:40:00,
2013-03-26 20:55:00,36.2,23.0,29.81,NW,314,0.0,1.0,60,0.00,,,0.00,weatherlink.com 1.10,2013-03-27 00:55:00,
2013-03-26 21:10:00,35.1,24.0,29.82,ESE,118,0.0,1.0,63,0.00,,,0.00,weatherlink.com 1.10,2013-03-27 01:10:00,
2013-03-26 21:25:00,34.0,24.0,29.82,South,174,0.0,1.0,66,0.00,,,0.00,weatherlink.com 1.10,2013-03-27 01:25:00,
2013-03-26 21:40:00,33.2,24.0,29.82,SE,139,0.0,1.0,68,0.00,,,0.00,weatherlink.com 1.10,2013-03-27 01:40:00,
2013-03-26 21:55:00,31.8,24.0,29.83,SE,139,0.0,1.0,72,0.00,,,0.00,weatherlink.com 1.10,2013-03-27 01:55:00,
2013-03-26 22:10:00,30.7,23.0,29.83,SE,139,0.0,0.0,73,0.00,,,0.00,weatherlink.com 1.10,2013-03-27 02:10:00,
2013-03-26 22:25:00,30.0,23.0,29.83,SE,138,0.0,1.0,76,0.00,,,0.00,weatherlink.com 1.10,2013-03-27 02:25:00,
2013-03-26 22:40:00,29.4,23.0,29.83,SW,215,0.0,1.0,77,0.00,,,0.00,weatherlink.com 1.10,2013-03-27 02:40:00,
2013-03-26 22:55:00,29.1,23.0,29.83,SW,236,0.0,1.0,78,0.00,,,0.00,weatherlink.com 1.10,2013-03-27 02:55:00,
2013-03-26 23:10:00,28.6,23.0,29.83,SW,236,0.0,1.0,79,0.00,,,0.00,weatherlink.com 1.10,2013-03-27 03:10:00,
2013-03-26 23:25:00,28.1,22.0,29.83,SW,236,0.0,0.0,79,0.00,,,0.00,weatherlink.com 1.10,2013-03-27 03:25:00,
2013-03-26 23:40:00,27.9,23.0,29.84,SW,236,0.0,1.0,80,0.00,,,0.00,weatherlink.com 1.10,2013-03-27 03:40:00,
2013-03-26 23:55:00,27.9,23.0,29.83,NW,325,0.0,2.0,80,0.00,,,0.00,weatherlink.com 1.10,2013-03-27 03:55:00,